Burlington, Vermont
Current Conditions -  °F | °C
As of 9:54 AM on Friday 19 Dec 2014 (Local Time) from KBTV Reporting Station
Overcast Overcast  
Wind Chill: -9°   Ceiling: 2000
Heat Index: -3°   Visibility: 10mi
Dew Point: -8°   Wind: 10mph
Humidity: 71%   Direction: 340°NNW
Pressure: 30.06"   Gusts: NA
Location:  44.48°N, 73.21°W
Report Text: KBTV 191454Z 34009KT 10SM BKN020 OVC026 M03/M08 A3006 RMK AO2 SLP184 T10331078 51018
Loading
Personal Weather Stations






























Interactive Weather Map New forecast layout! Learn more

10-Day Weather Forecast

Advertisements
Track Severe Weather on mobile